createdAt,value
2022-10-01T00:01:34.681Z,15.10
2022-10-01T00:06:05.793Z,15.18
2022-10-01T00:10:22.395Z,15.05
2022-10-01T00:14:39.341Z,13.05
2022-10-01T00:18:55.580Z,15.07
2022-10-01T00:23:15.860Z,13.75
2022-10-01T00:27:32.061Z,13.68
2022-10-01T00:31:48.234Z,14.90
2022-10-01T00:36:05.723Z,14.35
2022-10-01T00:40:22.651Z,13.45
2022-10-01T00:44:38.789Z,12.82
2022-10-01T00:48:59.914Z,12.60
2022-10-01T00:53:16.942Z,13.73
2022-10-01T00:57:33.685Z,12.35
2022-10-01T01:01:49.843Z,14.50
2022-10-01T01:06:08.283Z,10.57
2022-10-01T01:10:30.054Z,10.68
2022-10-01T01:15:12.884Z,12.40
2022-10-01T01:19:31.653Z,7.83
2022-10-01T01:24:05.794Z,10.05
2022-10-01T01:28:31.978Z,6.43
2022-10-01T01:32:55.193Z,6.10
2022-10-01T01:37:15.958Z,7.53
2022-10-01T01:41:36.101Z,7.65
2022-10-01T01:45:55.244Z,10.45
2022-10-01T01:50:14.009Z,9.25
2022-10-01T01:54:30.602Z,7.75
2022-10-01T01:58:47.058Z,5.75
2022-10-01T02:03:03.621Z,6.68
2022-10-01T02:07:22.602Z,7.53
2022-10-01T02:11:49.145Z,5.97
2022-10-01T02:16:19.203Z,11.12
2022-10-01T02:20:46.048Z,8.10
2022-10-01T02:25:05.568Z,7.60
2022-10-01T02:29:22.765Z,8.80
2022-10-01T02:33:39.800Z,10.48
2022-10-01T02:37:56.822Z,8.77
2022-10-01T02:42:14.652Z,9.95
2022-10-01T02:46:33.474Z,9.23
2022-10-01T02:50:52.411Z,10.80
2022-10-01T02:55:14.881Z,12.57
2022-10-01T02:59:30.893Z,10.40
2022-10-01T03:03:46.925Z,10.45
2022-10-01T03:08:03.312Z,10.13
2022-10-01T03:12:19.474Z,11.55
2022-10-01T03:16:35.641Z,8.70
2022-10-01T03:20:51.640Z,10.70
2022-10-01T03:25:08.092Z,10.50
2022-10-01T03:29:25.257Z,16.02
2022-10-01T03:33:41.359Z,11.65
2022-10-01T03:37:57.458Z,10.48
2022-10-01T03:42:13.511Z,10.38
2022-10-01T03:46:29.759Z,41.22
2022-10-01T03:50:59.773Z,12.25
2022-10-01T03:55:15.949Z,16.37
2022-10-01T03:59:32.065Z,12.45
2022-10-01T04:03:49.320Z,10.15
2022-10-01T04:08:05.583Z,9.25
2022-10-01T04:12:21.687Z,11.57
2022-10-01T04:16:37.755Z,9.82
2022-10-01T04:20:53.849Z,10.13
2022-10-01T04:25:11.070Z,10.60
2022-10-01T04:29:27.165Z,9.02
2022-10-01T04:33:43.269Z,9.23
2022-10-01T04:38:08.012Z,10.73
2022-10-01T04:42:24.128Z,10.88
2022-10-01T04:46:40.179Z,10.82
2022-10-01T04:50:56.258Z,11.63
2022-10-01T04:55:12.761Z,10.23
2022-10-01T04:59:28.828Z,13.23
2022-10-01T05:03:44.956Z,13.32
2022-10-01T05:08:01.356Z,13.02
2022-10-01T05:12:20.113Z,14.13
2022-10-01T05:16:39.832Z,12.93
2022-10-01T05:20:55.911Z,12.85
2022-10-01T05:25:12.042Z,12.98
2022-10-01T05:29:28.189Z,11.00
2022-10-01T05:33:44.230Z,12.70
2022-10-01T05:38:02.866Z,10.65
2022-10-01T05:42:19.008Z,14.32
2022-10-01T05:46:35.655Z,11.48
2022-10-01T05:50:51.978Z,10.85
2022-10-01T05:55:08.609Z,10.32
2022-10-01T05:59:28.451Z,10.65
2022-10-01T06:03:50.889Z,8.57
2022-10-01T06:08:08.677Z,7.10
2022-10-01T06:12:25.408Z,9.43
2022-10-01T06:16:41.471Z,4.75
2022-10-01T06:20:59.856Z,5.25
2022-10-01T06:25:15.939Z,4.57
2022-10-01T06:29:31.967Z,4.55
2022-10-01T06:33:48.129Z,5.85
2022-10-01T06:38:04.851Z,6.53
2022-10-01T06:42:20.969Z,7.70
2022-10-01T06:46:37.472Z,10.73
2022-10-01T06:50:55.750Z,10.77
2022-10-01T06:55:16.310Z,13.82
2022-10-01T06:59:33.946Z,11.80
2022-10-01T07:03:50.700Z,11.02
2022-10-01T07:08:07.485Z,14.18
2022-10-01T07:12:23.691Z,9.35
2022-10-01T07:16:39.959Z,14.38
2022-10-01T07:20:58.051Z,13.57
2022-10-01T07:25:15.095Z,13.95
2022-10-01T07:29:31.769Z,14.40
2022-10-01T07:33:48.458Z,11.65
2022-10-01T07:38:08.279Z,13.13
2022-10-01T07:42:24.301Z,11.52
2022-10-01T07:46:40.581Z,11.35
2022-10-01T07:50:58.001Z,11.23
2022-10-01T07:55:14.825Z,11.10
2022-10-01T07:59:31.456Z,11.57
2022-10-01T08:03:49.888Z,12.20
2022-10-01T08:08:09.093Z,11.25
2022-10-01T08:12:30.498Z,10.82
2022-10-01T08:16:47.417Z,9.75
2022-10-01T08:21:04.460Z,9.38
2022-10-01T08:25:20.635Z,10.88
2022-10-01T08:29:36.764Z,9.85
2022-10-01T08:33:53.010Z,11.23
2022-10-01T08:38:10.052Z,13.38
2022-10-01T08:43:03.320Z,12.30
2022-10-01T08:47:35.080Z,13.48
2022-10-01T08:52:03.733Z,15.27
2022-10-01T08:56:32.166Z,14.48
2022-10-01T09:00:49.565Z,13.05
2022-10-01T09:05:19.367Z,14.38
2022-10-01T09:09:47.997Z,14.07
2022-10-01T09:14:33.666Z,15.20
2022-10-01T09:18:55.629Z,13.25
2022-10-01T09:23:24.355Z,13.40
2022-10-01T09:27:41.031Z,15.10
2022-10-01T09:31:57.446Z,12.02
2022-10-01T09:36:33.540Z,13.18
2022-10-01T09:40:55.666Z,10.00
2022-10-01T09:45:15.829Z,11.98
2022-10-01T09:49:35.487Z,10.02
2022-10-01T09:54:14.348Z,9.30
2022-10-01T09:58:31.346Z,9.77
2022-10-01T10:02:52.364Z,8.07
2022-10-01T10:07:08.578Z,8.32
2022-10-01T10:11:34.349Z,9.18
2022-10-01T10:15:52.868Z,7.60
2022-10-01T10:20:21.308Z,10.63
2022-10-01T10:24:37.623Z,9.00
2022-10-01T10:28:53.864Z,9.60
2022-10-01T10:33:14.368Z,9.05
2022-10-01T10:37:34.578Z,9.50
2022-10-01T10:41:52.163Z,9.35
2022-10-01T10:46:09.862Z,8.63
2022-10-01T10:50:31.331Z,9.07
2022-10-01T10:54:54.702Z,7.12
2022-10-01T10:59:12.564Z,8.88
2022-10-01T11:03:31.351Z,9.20
2022-10-01T11:07:49.485Z,10.85
2022-10-01T11:12:35.558Z,13.55
2022-10-01T11:17:25.286Z,8.32
2022-10-01T11:21:50.401Z,11.45
2022-10-01T11:26:41.784Z,11.73
2022-10-01T11:31:37.199Z,15.48
2022-10-01T11:36:29.403Z,21.58
2022-10-01T11:40:54.404Z,14.93
2022-10-01T11:45:21.588Z,15.45
2022-10-01T11:49:50.839Z,15.25
2022-10-01T11:54:11.944Z,17.50
2022-10-01T11:59:03.168Z,15.95
2022-10-01T12:03:21.652Z,20.37
2022-10-01T12:07:40.510Z,17.30
2022-10-01T12:12:10.271Z,22.40
2022-10-01T12:16:39.185Z,19.33
2022-10-01T12:20:57.756Z,25.67
2022-10-01T12:25:14.433Z,26.87
2022-10-01T12:30:06.953Z,22.10
2022-10-01T12:34:37.079Z,20.15
2022-10-01T12:39:08.853Z,23.40
2022-10-01T12:43:50.857Z,19.50
2022-10-01T12:48:22.626Z,25.00
2022-10-01T12:53:18.475Z,22.50
2022-10-01T12:57:54.020Z,28.52
2022-10-01T13:02:34.477Z,27.62
2022-10-01T13:07:23.393Z,26.77
2022-10-01T13:12:03.351Z,25.37
2022-10-01T13:16:44.745Z,29.23
2022-10-01T13:21:27.294Z,32.22
2022-10-01T13:26:01.818Z,36.67
2022-10-01T13:30:25.647Z,27.40
2022-10-01T13:34:46.352Z,31.50
2022-10-01T13:39:04.261Z,32.75
2022-10-01T13:43:24.397Z,25.92
2022-10-01T13:47:41.347Z,25.17
2022-10-01T13:51:58.465Z,19.52
2022-10-01T13:56:28.495Z,21.98
2022-10-01T14:00:54.242Z,21.67
2022-10-01T14:05:43.319Z,20.25
2022-10-01T14:10:01.021Z,20.67
2022-10-01T14:14:43.260Z,19.00
2022-10-01T14:18:59.366Z,20.67
2022-10-01T14:23:21.652Z,18.02
2022-10-01T14:27:40.792Z,18.85
2022-10-01T14:32:37.073Z,17.12
2022-10-01T14:36:54.627Z,14.90
2022-10-01T14:41:23.690Z,14.35
2022-10-01T14:46:00.737Z,23.52
2022-10-01T14:50:20.926Z,14.87
2022-10-01T14:54:58.733Z,18.05
2022-10-01T14:59:32.435Z,13.40
2022-10-01T15:03:49.787Z,13.65
2022-10-01T15:08:24.424Z,12.45
2022-10-01T15:12:41.767Z,13.70
2022-10-01T15:17:02.203Z,11.02
2022-10-01T15:21:40.280Z,9.93
2022-10-01T15:25:58.348Z,9.40
2022-10-01T15:30:18.532Z,8.30
2022-10-01T15:34:35.325Z,12.73
2022-10-01T15:38:51.784Z,10.13
2022-10-01T15:43:28.503Z,8.82
2022-10-01T15:47:52.447Z,12.02
2022-10-01T15:52:33.742Z,8.48
2022-10-01T15:56:49.833Z,32.28
2022-10-01T16:01:22.162Z,11.02
2022-10-01T16:05:46.004Z,9.30
2022-10-01T16:10:28.298Z,8.00
2022-10-01T16:15:05.010Z,9.18
2022-10-01T16:19:31.543Z,10.38
2022-10-01T16:23:53.288Z,12.60
2022-10-01T16:28:25.097Z,12.82
2022-10-01T16:32:41.193Z,15.02
2022-10-01T16:36:58.048Z,13.35
2022-10-01T16:41:20.063Z,14.87
2022-10-01T16:45:39.024Z,15.25
2022-10-01T16:49:55.116Z,15.65
2022-10-01T16:54:26.743Z,16.73
2022-10-01T16:58:46.301Z,15.23
2022-10-01T17:03:02.817Z,13.20
2022-10-01T17:07:18.867Z,14.35
2022-10-01T17:11:35.926Z,14.02
2022-10-01T17:15:55.054Z,13.05
2022-10-01T17:20:11.361Z,13.82
2022-10-01T17:24:27.620Z,17.25
2022-10-01T17:28:43.880Z,13.70
2022-10-01T17:33:00.943Z,13.07
2022-10-01T17:37:17.176Z,13.68
2022-10-01T17:41:33.418Z,14.00
2022-10-01T17:45:57.370Z,16.98
2022-10-01T17:50:14.637Z,16.00
2022-10-01T17:54:30.781Z,16.70
2022-10-01T17:58:48.675Z,24.30
2022-10-01T18:03:04.991Z,15.73
2022-10-01T18:07:21.171Z,16.65
2022-10-01T18:11:38.525Z,17.30
2022-10-01T18:16:18.931Z,16.75
2022-10-01T18:20:40.778Z,17.75
2022-10-01T18:24:58.242Z,17.05
2022-10-01T18:29:32.669Z,16.20
2022-10-01T18:33:55.251Z,21.10
2022-10-01T18:38:29.486Z,18.67
2022-10-01T18:43:13.099Z,19.40
2022-10-01T18:48:07.596Z,19.80
2022-10-01T18:52:29.842Z,23.10
2022-10-01T18:57:00.598Z,24.30
2022-10-01T19:01:36.002Z,25.33
2022-10-01T19:06:10.019Z,28.87
2022-10-01T19:10:40.247Z,26.58
2022-10-01T19:15:14.285Z,29.02
2022-10-01T19:19:54.592Z,30.35
2022-10-01T19:24:29.241Z,25.60
2022-10-01T19:29:02.490Z,25.98
2022-10-01T19:33:20.591Z,26.27
2022-10-01T19:37:43.696Z,25.08
2022-10-01T19:42:27.086Z,27.00
2022-10-01T19:46:47.617Z,25.55
2022-10-01T19:51:12.516Z,22.92
2022-10-01T19:55:37.754Z,23.45
2022-10-01T20:00:04.620Z,28.33
2022-10-01T20:04:25.360Z,24.87
2022-10-01T20:09:10.968Z,25.65
2022-10-01T20:13:51.665Z,24.58
2022-10-01T20:18:27.659Z,28.87
2022-10-01T20:23:19.992Z,24.67
2022-10-01T20:27:56.789Z,25.17
2022-10-01T20:32:36.789Z,25.00
2022-10-01T20:37:14.495Z,23.25
2022-10-01T20:41:32.795Z,24.40
2022-10-01T20:45:51.621Z,23.38
2022-10-01T20:50:14.979Z,26.27
2022-10-01T20:54:38.807Z,26.40
2022-10-01T20:58:59.505Z,25.20
2022-10-01T21:03:41.904Z,25.60
2022-10-01T21:08:06.983Z,25.42
2022-10-01T21:12:29.261Z,25.23
2022-10-01T21:16:46.409Z,22.70
2022-10-01T21:21:02.727Z,22.55
2022-10-01T21:25:31.177Z,20.60
2022-10-01T21:30:05.162Z,19.20
2022-10-01T21:34:27.180Z,23.70
2022-10-01T21:39:15.727Z,19.85
2022-10-01T21:43:34.758Z,19.40
2022-10-01T21:47:50.894Z,16.48
2022-10-01T21:52:18.893Z,14.38
2022-10-01T21:56:41.107Z,17.70
2022-10-01T22:01:20.565Z,12.50
2022-10-01T22:05:46.205Z,15.43
2022-10-01T22:10:27.910Z,14.68
2022-10-01T22:14:45.246Z,13.68
2022-10-01T22:19:26.078Z,13.23
2022-10-01T22:23:48.030Z,12.63
2022-10-01T22:28:07.709Z,11.63
2022-10-01T22:32:26.126Z,11.43
2022-10-01T22:36:51.244Z,12.15
2022-10-01T22:41:27.579Z,10.55
2022-10-01T22:45:55.570Z,12.15
2022-10-01T22:50:17.558Z,13.75
2022-10-01T22:55:03.234Z,10.75
2022-10-01T22:59:35.581Z,11.73
2022-10-01T23:04:04.403Z,8.80
2022-10-01T23:08:34.795Z,11.68
2022-10-01T23:12:50.943Z,11.18
2022-10-01T23:17:30.188Z,12.63
2022-10-01T23:22:21.546Z,11.30
2022-10-01T23:26:43.521Z,8.70
2022-10-01T23:31:26.151Z,12.82
2022-10-01T23:35:46.510Z,8.63
2022-10-01T23:40:08.230Z,9.00
2022-10-01T23:44:29.457Z,6.60
2022-10-01T23:49:07.258Z,5.28
2022-10-01T23:53:54.983Z,4.12
2022-10-01T23:58:13.532Z,6.62
